Huvudsida
METAR-TAF:

METAR-TAF

Flygplatser :

Middleton Island, Alaska, USA

latitud: 59-26N, longitud: 146-18W, höjd: 27 m

Aktuellt väderrapport

Denna rapport gjordes för 18 minuter sedan, klockan 21:51 UTC
Vind 14 kt från nord/nordost
Temperatur 0°C
Fuktighet 93%
Tryck 993 hPa
Sikt: 4.8 km
Spridda moln på en höjd av 400 ft
Brutna moln på en höjd av 800 ft
Mulet på en höjd av 1500 ft
lätt snö, fuktdis

METAR: PAMD 192151Z AUTO 03014KT 3SM -SN BR SCT004 BKN008 OVC015 00/M01 A2933 RMK AO2 UPE07SNB07 SLP921 P0000 T00001011 FZRANO

Tid: 13:09 (22:09 UTC)


TAF: saknas

Aktuella väderrapporter och prognoser från 4000 flygplatser (METAR- och TAF-rapporter).

De tillgängliga stationerna syns som gula och röda prickar på kartan.

För musen över prickarna för att se namnen på stationerna.

Klicka sedan för att få väderrapporter och prognoser.

För att ändra kartan: Klicka på de gröna knapparna med ett svart kors på för att zooma in; den gröna knappen med ett streck på för att zooma ut; eller på de gröna pilarna för angränsande kartor.


METAR-TAF: